Aviation Digital Data Service (ADDS)

Output produced by TAFs form (1920 UTC 23 July 2017)
found at http://www.aviationweather.gov/adds/tafs/
 
KDEN 231853Z 09013G16KT 10SM SCT090 SCT150 32/06 A3018 RMK AO2 SLP131 T03220056 $
KDEN 231729Z 2318/2424 10007KT P6SM SCT070 SCT220 
     FM232300 24015KT P6SM SCT070 BKN150 
     FM240200 20012KT P6SM FEW070 SCT150 
     FM240500 20012KT P6SM FEW150 SCT220 
     FM241600 VRB05KT P6SM FEW080 SCT220 
     FM241800 12008KT P6SM FEW080 SCT220 
     FM242100 10011KT P6SM SCT080 BKN150